Portada
METAR-TAF:

METAR-TAF

Aeropuertos :

Resia Pass, Italia

latitud: 46-50N, longitud: 010-30E, altitud: 1800 m

Observación

El informe se hizo hace 48 minutos, a las 10:55 UTC
Viento 4 kt del norte
Temperatura 1°C
Humedad 69%
Presión 1020 hPa
Visibilidad 10 km o más
Nubes dispersas a una altura de 5000 ft

METAR: LIVE 201055Z 35004KT 9999 SCT050 01/M04 Q1020 RMK BKN BKN060 VIS MIN 9999

Hora: 12:43 (11:43 UTC)


TAF: falta

Observaciones y pronósticos meteorológicos de más de 4000 aeropuertos (mensajes METAR y TAF).

Los puntos amarillos y rojos representan las estaciones disponibles.

Ponga el ratón en el punto deseado para ver el nombre de la estación.

Haga clic para ver las observaciones y los pronósticos meteorológicos.

Para cambiar el mapa : haga clic en los botones verdes con una cruz de color negro para hacer un zoom, en el botón verde con un guión para alejar o en las flechas verdes para mapas adyacentes.


METAR-TAF: